Terminal Aerodrome Forecast
Issued by NWS Sioux Falls, SD

Home | Current Version | Previous Version | Graphics & Text | Print | Product List | Glossary Off
Versions: 1 2 3 4 5 6 7 8 9 10 11 12 13 14 15 16 17 18 19 20 21 22 23 24 25 26 27 28 29 30 31 32

000
FTUS43 KFSD 280520
TAFSUX
TAF
KSUX 280520Z 2806/2906 17018G26KT P6SM TSRA OVC040CB
     FM280730 17017KT P6SM VCTS BKN050CB
     FM281000 18012KT P6SM OVC090
     FM281400 22011KT P6SM BKN150
     FM281700 26009KT P6SM SCT200
     FM282000 29010KT P6SM FEW200
     FM290100 31006KT P6SM FEW200=

USA.gov is the U.S. government's official web portal to all federal, state and local government web resources and services.